Time;durP1;ratioP1;P1;durP2;ratioP2;P2;SDS_P1;SDS_P2;PMS_P1;PMS_P2;Temp;Humidity;BMP_temperature;BMP_pressure;BME280_temperature;BME280_humidity;BME280_pressure;Samples;Min_cycle;Max_cycle;Signal;HPM_P1;HPM_P2
2023/09/29 00:11:23;;;;;;;22.52;10.68;;;;;;;23.73;46.52;100901.50;31450722;28;20051;-83
2023/09/29 00:26:25;;;;;;;17.40;9.90;;;;;;;23.73;46.79;100901.50;31471396;28;20070;-83
2023/09/29 00:41:29;;;;;;;;;;;;;;;23.58;48.44;100911.97;31460667;28;20097;-81
2023/09/29 00:56:32;;;;;;;15.23;9.45;;;;;;;23.41;47.58;100920.06;31498948;28;19920;-81
2023/09/29 01:11:43;;;;;;;17.98;10.38;;;;;;;23.19;48.66;100928.88;31486309;28;20460;-83
2023/09/29 01:26:45;;;;;;;23.50;11.18;;;;;;;22.98;48.19;100927.34;31461529;28;20515;-82
2023/09/29 01:41:47;;;;;;;24.67;11.07;;;;;;;22.87;48.29;100930.00;31500537;28;20075;-82
2023/09/29 01:56:50;;;;;;;68.85;32.88;;;;;;;22.76;48.50;100933.34;31480581;28;20123;-81
2023/09/29 02:11:54;;;;;;;22.02;11.98;;;;;;;22.73;48.18;100934.28;31500413;28;20075;-81
2023/09/29 02:26:56;;;;;;;23.80;11.40;;;;;;;22.68;48.83;100944.03;31490690;28;20068;-82
2023/09/29 02:42:00;;;;;;;18.33;10.07;;;;;;;22.47;49.65;100939.72;31481839;28;20049;-83
2023/09/29 02:57:02;;;;;;;20.93;10.83;;;;;;;22.30;50.00;100942.22;31496660;28;20127;-82
2023/09/29 03:12:05;;;;;;;27.90;11.52;;;;;;;22.16;50.13;100947.78;31476096;28;20523;-82
2023/09/29 03:27:07;;;;;;;33.45;12.27;;;;;;;22.17;50.64;100954.84;31477660;28;20053;-81
2023/09/29 03:42:13;;;;;;;25.63;11.73;;;;;;;22.15;50.61;100962.84;31483959;28;20102;-83
2023/09/29 03:57:15;;;;;;;28.30;12.55;;;;;;;22.19;50.69;100963.44;31505428;28;20048;-81
2023/09/29 04:12:17;;;;;;;23.00;10.60;;;;;;;22.22;51.40;100967.97;31476308;28;20048;-80
2023/09/29 04:27:19;;;;;;;26.50;10.85;;;;;;;22.50;50.90;100960.88;31495296;28;20075;-83
2023/09/29 04:42:21;;;;;;;20.75;10.48;;;;;;;22.87;50.86;100960.44;31461927;28;20046;-79
2023/09/29 04:57:23;;;;;;;27.42;13.45;;;;;;;23.28;50.91;100961.97;31484271;28;20144;-80
2023/09/29 05:12:43;;;;;;;;;;;;;;;;;;;;;
2023/09/29 05:28:05;;;;;;;17.48;10.23;;;;;;;24.89;48.76;100969.47;31455427;28;20045;-82
2023/09/29 05:43:09;;;;;;;25.85;11.93;;;;;;;26.13;47.25;100980.50;31479531;28;20340;-79
2023/09/29 05:58:15;;;;;;;23.98;11.57;;;;;;;27.68;43.93;100975.03;31500002;28;20048;-80
2023/09/29 06:13:17;;;;;;;22.23;11.50;;;;;;;28.90;42.18;100966.91;31492420;28;20090;-77
2023/09/29 06:28:19;;;;;;;27.87;12.73;;;;;;;29.79;40.68;100974.91;31481701;28;20475;-78
2023/09/29 06:43:21;;;;;;;23.70;10.48;;;;;;;30.60;40.01;100969.03;31496200;28;20420;-78
2023/09/29 06:58:23;;;;;;;20.63;10.35;;;;;;;32.29;37.59;100969.69;31455912;28;20488;-78
2023/09/29 07:13:25;;;;;;;25.15;9.40;;;;;;;33.32;35.12;100968.63;31469328;28;20420;-80
2023/09/29 07:28:27;;;;;;;25.25;9.52;;;;;;;33.72;34.61;100966.13;31472164;28;20048;-81
2023/09/29 07:43:29;;;;;;;29.13;11.27;;;;;;;34.66;32.80;100961.44;31464757;28;20075;-79
2023/09/29 07:58:31;;;;;;;15.90;7.85;;;;;;;35.41;32.22;100953.28;31471872;28;20070;-80
2023/09/29 08:13:34;;;;;;;14.60;6.60;;;;;;;36.11;31.52;100940.94;31479227;28;20061;-78
2023/09/29 08:28:38;;;;;;;9.77;5.70;;;;;;;37.10;30.04;100923.66;31503990;28;20055;-84
2023/09/29 08:43:42;;;;;;;18.63;4.47;;;;;;;36.93;27.97;100895.41;31451808;28;20053;-84
2023/09/29 08:58:50;;;;;;;7.20;2.87;;;;;;;36.54;27.08;100897.94;31478678;28;20382;-77
2023/09/29 09:14:00;;;;;;;6.28;2.28;;;;;;;36.63;26.56;100909.91;31466282;28;20087;-77
2023/09/29 09:29:08;;;;;;;4.30;2.25;;;;;;;36.73;25.06;100902.28;31486111;28;20053;-79
2023/09/29 09:44:11;;;;;;;4.70;2.13;;;;;;;37.02;25.03;100883.41;31486821;28;20063;-83
2023/09/29 09:59:18;;;;;;;7.68;3.00;;;;;;;36.50;25.89;100857.28;31512936;28;20060;-75
2023/09/29 10:14:21;;;;;;;6.07;2.88;;;;;;;36.63;26.00;100848.44;31476903;28;20060;-74
2023/09/29 10:29:29;;;;;;;3.95;2.30;;;;;;;37.19;25.48;100843.00;31461690;28;20550;-73
2023/09/29 10:44:55;;;;;;;5.43;3.08;;;;;;;37.44;24.78;100823.00;31468409;28;20107;-74
2023/09/29 10:59:59;;;;;;;5.10;3.20;;;;;;;37.43;24.48;100810.16;31465078;28;20052;-76
2023/09/29 11:15:07;;;;;;;16.55;5.15;;;;;;;37.19;25.00;100794.91;31463473;28;20126;-76
2023/09/29 11:30:10;;;;;;;10.02;2.90;;;;;;;38.52;24.91;100798.50;31450239;28;20053;-77
2023/09/29 11:45:13;;;;;;;6.60;2.90;;;;;;;38.13;24.45;100774.38;31468756;28;20052;-80
2023/09/29 12:00:17;;;;;;;3.83;2.90;;;;;;;36.72;25.43;100771.41;31471520;28;20416;-80
2023/09/29 12:15:20;;;;;;;9.13;3.53;;;;;;;34.07;26.93;100761.66;31476976;28;20052;-79
2023/09/29 12:30:22;;;;;;;5.40;3.08;;;;;;;32.82;28.27;100748.75;31476988;28;20063;-79
2023/09/29 12:45:26;;;;;;;4.55;2.78;;;;;;;32.40;28.86;100741.81;31480331;28;20064;-78
2023/09/29 13:00:28;;;;;;;7.13;3.33;;;;;;;32.16;29.18;100729.72;31455218;28;20044;-78
2023/09/29 13:15:31;;;;;;;6.13;3.03;;;;;;;31.91;29.75;100725.09;31470250;28;20122;-77
2023/09/29 13:30:34;;;;;;;5.10;2.70;;;;;;;31.92;29.55;100720.97;31463676;28;20169;-76
2023/09/29 13:45:55;;;;;;;8.67;2.90;;;;;;;31.58;29.98;100721.13;31452655;28;20060;-75
2023/09/29 14:00:57;;;;;;;5.13;3.13;;;;;;;31.24;29.80;100710.78;31468122;28;20061;-77
2023/09/29 14:15:59;;;;;;;6.22;4.53;;;;;;;31.29;30.08;100709.13;31513454;28;20534;-77
2023/09/29 14:31:02;;;;;;;5.22;3.58;;;;;;;30.96;30.84;100711.44;31483013;28;20049;-79
2023/09/29 14:46:05;;;;;;;13.07;5.28;;;;;;;30.81;30.57;100719.69;31469061;28;20141;-77
2023/09/29 15:01:09;;;;;;;10.35;4.15;;;;;;;30.52;31.22;100711.16;31464199;28;20048;-79
2023/09/29 15:16:13;;;;;;;7.55;3.58;;;;;;;30.26;31.19;100716.81;31480749;28;20052;-76
2023/09/29 15:31:16;;;;;;;11.93;4.68;;;;;;;30.00;31.39;100712.00;31461025;28;20083;-78
2023/09/29 15:46:18;;;;;;;7.97;4.50;;;;;;;29.62;31.98;100716.28;31450530;28;20049;-74
2023/09/29 16:01:20;;;;;;;6.63;4.10;;;;;;;29.41;32.47;100708.50;31467069;28;20048;-75
2023/09/29 16:16:22;;;;;;;11.63;4.65;;;;;;;29.14;32.89;100718.09;31445054;28;20053;-79
2023/09/29 16:31:28;;;;;;;;;;;;;;;28.85;33.87;100723.38;31450117;28;20053;-79
2023/09/29 16:46:30;;;;;;;12.15;5.18;;;;;;;28.63;33.60;100729.25;31438555;28;19925;-78
2023/09/29 17:01:32;;;;;;;12.70;6.30;;;;;;;28.24;34.42;100729.03;31454860;28;20052;-76
2023/09/29 17:16:35;;;;;;;46.33;16.03;;;;;;;27.93;35.31;100739.50;31441613;28;20480;-81
2023/09/29 17:31:41;;;;;;;26.80;9.77;;;;;;;27.59;37.15;100735.56;31517567;28;20052;-84
2023/09/29 17:46:43;;;;;;;35.17;13.48;;;;;;;27.45;37.24;100740.19;31485795;28;20429;-81
2023/09/29 18:01:56;;;;;;;;;;;;;;;;;;;;;
2023/09/29 18:17:01;;;;;;;17.20;7.13;;;;;;;27.25;37.54;100743.41;31510228;28;20091;-83
2023/09/29 18:32:04;;;;;;;12.07;5.83;;;;;;;27.13;37.74;100737.19;31502594;28;20058;-81
2023/09/29 18:47:29;;;;;;;14.60;6.43;;;;;;;26.81;38.08;100734.84;31523073;28;20048;-82
2023/09/29 19:02:35;;;;;;;21.65;11.35;;;;;;;26.68;38.72;100748.59;31555957;28;20309;-82
2023/09/29 19:17:37;;;;;;;18.23;8.25;;;;;;;26.50;38.79;100732.47;31511301;28;20068;-80
2023/09/29 19:32:44;;;;;;;14.27;8.95;;;;;;;26.39;38.79;100740.91;31534924;28;20053;-82
2023/09/29 19:47:51;;;;;;;16.00;7.53;;;;;;;26.33;39.46;100740.16;31472665;28;20052;-81
2023/09/29 20:02:56;;;;;;;17.20;8.15;;;;;;;26.14;39.31;100739.94;31500053;28;20076;-82
2023/09/29 20:17:58;;;;;;;24.52;14.30;;;;;;;25.89;40.09;100744.56;31488516;28;20061;-82
2023/09/29 20:33:02;;;;;;;18.13;9.20;;;;;;;25.73;40.00;100745.38;31475070;28;20059;-84
2023/09/29 20:48:04;;;;;;;20.48;9.90;;;;;;;25.55;40.34;100740.28;31493364;28;20108;-86
2023/09/29 21:03:09;;;;;;;22.40;11.37;;;;;;;25.36;40.62;100746.38;31489872;28;20173;-87
2023/09/29 21:18:14;;;;;;;20.33;12.05;;;;;;;25.21;40.80;100745.13;31455701;28;20439;-84
2023/09/29 21:33:17;;;;;;;25.77;12.77;;;;;;;25.05;41.10;100736.25;31461947;28;20147;-84
2023/09/29 21:48:20;;;;;;;25.63;14.57;;;;;;;25.03;41.09;100751.94;31458861;28;20061;-84
2023/09/29 22:03:23;;;;;;;24.35;12.07;;;;;;;24.85;41.50;100747.56;31503450;28;20044;-84
2023/09/29 22:18:25;;;;;;;;;;;;;;;24.93;42.25;100748.59;31489367;28;20507;-83
2023/09/29 22:33:27;;;;;;;25.85;11.60;;;;;;;24.68;41.62;100747.53;31459774;28;19920;-84
2023/09/29 22:48:30;;;;;;;19.52;11.20;;;;;;;24.48;41.97;100747.72;31498907;28;20094;-83
2023/09/29 23:03:34;;;;;;;23.40;11.00;;;;;;;24.43;42.28;100743.66;31493413;28;20102;-82
2023/09/29 23:18:36;;;;;;;25.23;11.63;;;;;;;24.37;42.17;100739.34;31501883;28;20555;-83
2023/09/29 23:33:40;;;;;;;22.52;9.98;;;;;;;24.30;42.11;100737.06;31492238;28;20154;-81
2023/09/29 23:48:43;;;;;;;20.55;10.70;;;;;;;24.20;42.17;100728.16;31500944;28;20136;-83
